Time;durP1;ratioP1;P1;durP2;ratioP2;P2;SDS_P1;SDS_P2;PMS_P1;PMS_P2;Temp;Humidity;BMP_temperature;BMP_pressure;BME280_temperature;BME280_humidity;BME280_pressure;Samples;Min_cycle;Max_cycle;Signal;HPM_P1;HPM_P2
2021/03/25 00:01:38;;;;;;;;;;;;;;;-4.84;100.00;99626.33;1709352;83;20249;-71
2021/03/25 00:04:06;;;;;;;;;;;;;;;-4.86;100.00;99626.16;1709897;82;20224;-71
2021/03/25 00:06:39;;;;;;;;;;;;;;;-4.93;100.00;99623.80;1711610;83;21206;-71
2021/03/25 00:09:16;;;;;;;;;;;;;;;-5.02;100.00;99619.83;1711230;83;20736;-71
2021/03/25 00:11:44;;;;;;;;;;;;;;;-5.15;100.00;99616.75;1694317;83;20546;-71
2021/03/25 00:14:13;;;;;;;;;;;;;;;-5.20;100.00;99619.00;1710569;83;20233;-71
2021/03/25 00:16:40;;;;;;;;;;;;;;;-5.20;100.00;99621.63;1712373;83;20524;-71
2021/03/25 00:19:08;;;;;;;;;;;;;;;-5.24;100.00;99609.34;1710983;82;22337;-71
2021/03/25 00:21:37;;;;;;;;;;;;;;;-5.21;100.00;99609.03;1710342;82;20174;-71
2021/03/25 00:24:06;;;;;;;;;;;;;;;-5.10;100.00;99603.22;1713020;82;20335;-71
2021/03/25 00:26:34;;;;;;;;;;;;;;;-4.97;100.00;99602.36;1712658;83;20712;-71
2021/03/25 00:29:01;;;;;;;;;;;;;;;-4.93;100.00;99604.17;1709941;82;20495;-71
2021/03/25 00:31:30;;;;;;;;;;;;;;;-4.96;100.00;99598.26;1713596;83;20528;-71
2021/03/25 00:33:58;;;;;;;;;;;;;;;-4.91;100.00;99599.11;1713258;83;20249;-71
2021/03/25 00:36:27;;;;;;;;;;;;;;;-4.91;100.00;99595.68;1713665;83;20117;-71
2021/03/25 00:38:56;;;;;;;;;;;;;;;-4.77;100.00;99592.02;1713624;83;20244;-71
2021/03/25 00:41:24;;;;;;;;;;;;;;;-4.61;100.00;99593.08;1711507;82;20216;-71
2021/03/25 00:43:51;;;;;;;;;;;;;;;-4.68;100.00;99591.56;1711890;83;21200;-71
2021/03/25 00:46:19;;;;;;;;;;;;;;;-4.62;100.00;99593.58;1713553;83;20674;-71
2021/03/25 00:48:48;;;;;;;;;;;;;;;-4.51;100.00;99589.86;1713255;83;20508;-71
2021/03/25 00:51:18;;;;;;;;;;;;;;;-4.49;100.00;99589.22;1708872;82;20146;-71
2021/03/25 00:53:49;;;;;;;;;;;;;;;-4.50;100.00;99584.97;1686514;83;20347;-71
2021/03/25 00:56:17;;;;;;;;;;;;;;;-4.56;100.00;99589.05;1713292;82;21473;-71
2021/03/25 00:58:46;;;;;;;;;;;;;;;-4.54;100.00;99588.87;1712956;83;20220;-71
2021/03/25 01:01:13;;;;;;;;;;;;;;;-4.49;100.00;99588.41;1713544;83;20161;-72
2021/03/25 01:03:41;;;;;;;;;;;;;;;-4.49;100.00;99588.41;1713375;83;20236;-71
2021/03/25 01:06:09;;;;;;;;;;;;;;;-4.47;100.00;99593.00;1711614;83;20221;-71
2021/03/25 01:08:37;;;;;;;;;;;;;;;-4.50;100.00;99586.28;1713332;83;21211;-71
2021/03/25 01:11:14;;;;;;;;;;;;;;;-4.50;100.00;99579.73;1713545;83;20161;-71
2021/03/25 01:13:47;;;;;;;;;;;;;;;-4.46;100.00;99584.16;1712880;82;20137;-71
2021/03/25 01:16:52;;;;;;;;;;;;;;;-4.48;100.00;99586.95;1711641;82;20291;-71
2021/03/25 01:19:21;;;;;;;;;;;;;;;-4.45;100.00;99589.75;1711881;83;20213;-69
2021/03/25 01:21:50;;;;;;;;;;;;;;;-4.44;100.00;99589.57;1709999;83;21209;-69
2021/03/25 01:24:19;;;;;;;;;;;;;;;-4.41;100.00;99585.35;1708199;82;20512;-70
2021/03/25 01:26:47;;;;;;;;;;;;;;;-4.29;100.00;99587.68;1710470;83;20512;-70
2021/03/25 01:29:15;;;;;;;;;;;;;;;-4.17;100.00;99581.17;1711624;83;20145;-71
2021/03/25 01:31:43;;;;;;;;;;;;;;;-4.11;100.00;99579.25;1712169;83;20245;-70
2021/03/25 01:34:15;;;;;;;;;;;;;;;-4.09;100.00;99590.41;1713190;83;21393;-70
2021/03/25 01:36:46;;;;;;;;;;;;;;;-4.13;100.00;99582.02;1710973;82;20189;-70
2021/03/25 01:39:15;;;;;;;;;;;;;;;-4.17;100.00;99578.06;1685925;84;20224;-70
2021/03/25 01:41:45;;;;;;;;;;;;;;;-4.23;100.00;99578.70;1711738;82;20312;-70
2021/03/25 01:44:37;;;;;;;;;;;;;;;-4.29;100.00;99583.25;1713328;83;20228;-71
2021/03/25 01:47:09;;;;;;;;;;;;;;;-4.29;100.00;99573.27;1709163;83;21802;-70
2021/03/25 01:49:39;;;;;;;;;;;;;;;-4.22;100.00;99578.21;1711707;82;20818;-70
2021/03/25 01:52:29;;;;;;;;;;;;;;;-4.16;100.00;99573.16;1707123;84;20162;-72
2021/03/25 01:55:19;;;;;;;;;;;;;;;-4.05;100.00;99576.48;1712425;82;20236;-71
2021/03/25 01:58:09;;;;;;;;;;;;;;;-3.99;100.00;99581.06;1712897;82;20257;-70
2021/03/25 02:00:57;;;;;;;;;;;;;;;-4.04;100.00;99576.33;1712328;82;21368;-70
2021/03/25 02:03:32;;;;;;;;;;;;;;;-4.06;100.00;99578.78;1710807;83;20224;-70
2021/03/25 02:06:13;;;;;;;;;;;;;;;-4.10;100.00;99580.88;1652486;86;20252;-71
2021/03/25 02:09:08;;;;;;;;;;;;;;;-4.21;100.00;99587.23;1653942;85;20258;-70
2021/03/25 02:11:42;;;;;;;;;;;;;;;-4.29;100.00;99587.68;1655512;84;20269;-71
2021/03/25 02:14:16;;;;;;;;;;;;;;;-4.41;100.00;99582.73;1657169;84;21164;-71
2021/03/25 02:16:50;;;;;;;;;;;;;;;-4.43;100.00;99583.87;1639060;86;20187;-70
2021/03/25 02:19:55;;;;;;;;;;;;;;;-4.41;100.00;99580.58;1892771;76;20255;-69
2021/03/25 02:22:33;;;;;;;;;;;;;;;-4.55;100.00;99585.44;1863761;77;20110;-70
2021/03/25 02:25:07;;;;;;;;;;;;;;;-4.60;100.00;99579.84;1863664;77;21348;-70
2021/03/25 02:27:53;;;;;;;;;;;;;;;-4.59;100.00;99582.78;1861510;77;20126;-70
2021/03/25 02:30:46;;;;;;;;;;;;;;;-4.65;100.00;99587.34;1863585;77;20251;-70
2021/03/25 02:33:19;;;;;;;;;;;;;;;-4.60;100.00;99592.13;1863718;77;20480;-70
2021/03/25 02:35:57;;;;;;;;;;;;;;;-4.67;100.00;99588.48;1862588;77;20154;-70
2021/03/25 02:38:36;;;;;;;;;;;;;;;-4.70;100.00;99589.61;1863649;77;21343;-70
2021/03/25 02:41:25;;;;;;;;;;;;;;;-4.80;100.00;99587.09;1863542;77;20581;-70
2021/03/25 02:43:57;;;;;;;;;;;;;;;-4.75;100.00;99589.25;1705970;84;20153;-70
2021/03/25 02:46:32;;;;;;;;;;;;;;;-4.72;100.00;99582.39;1741724;82;20182;-70
2021/03/25 02:49:03;;;;;;;;;;;;;;;-4.79;100.00;99586.59;1714522;82;20239;-70
2021/03/25 02:51:41;;;;;;;;;;;;;;;-4.88;100.00;99589.63;1741642;82;21182;-70
2021/03/25 02:54:09;;;;;;;;;;;;;;;-4.99;100.00;99582.05;1741698;82;20305;-71
2021/03/25 02:56:40;;;;;;;;;;;;;;;-5.02;100.00;99588.41;1741771;82;20159;-71
2021/03/25 02:59:29;;;;;;;;;;;;;;;-5.12;100.00;99582.91;1741737;82;20555;-71
2021/03/25 03:02:05;;;;;;;;;;;;;;;-5.22;100.00;99576.00;1741726;82;20197;-71
2021/03/25 03:04:34;;;;;;;;;;;;;;;-5.22;100.00;99579.08;1741483;82;21271;-71
2021/03/25 03:07:20;;;;;;;;;;;;;;;-5.13;100.00;99574.25;1741657;82;20235;-71
2021/03/25 03:09:56;;;;;;;;;;;;;;;-5.12;100.00;99576.38;1737898;82;20150;-70
2021/03/25 03:12:29;;;;;;;;;;;;;;;-5.17;100.00;99575.52;1740563;82;20569;-70
2021/03/25 03:15:10;;;;;;;;;;;;;;;-5.23;100.00;99585.30;1715034;82;20154;-71
2021/03/25 03:17:57;;;;;;;;;;;;;;;-5.32;100.00;99581.77;1741710;82;21139;-71
2021/03/25 03:20:57;;;;;;;;;;;;;;;-5.33;100.00;99578.84;1741411;82;20485;-70
2021/03/25 03:23:30;;;;;;;;;;;;;;;-5.40;100.00;99577.79;1725853;82;20591;-70
2021/03/25 03:26:00;;;;;;;;;;;;;;;-5.48;100.00;99579.86;1741763;82;20464;-71
2021/03/25 03:28:34;;;;;;;;;;;;;;;-5.53;100.00;99576.87;1741726;82;20146;-70
2021/03/25 03:31:06;;;;;;;;;;;;;;;-5.61;100.00;99578.08;1739252;82;21894;-70
2021/03/25 03:33:40;;;;;;;;;;;;;;;-5.65;100.00;99581.49;1741245;82;20150;-70
2021/03/25 03:36:13;;;;;;;;;;;;;;;-5.55;100.00;99571.45;1741217;82;20616;-70
2021/03/25 03:38:51;;;;;;;;;;;;;;;-5.54;100.00;99573.08;1741059;82;20166;-70
2021/03/25 03:41:26;;;;;;;;;;;;;;;-5.65;100.00;99573.64;1741336;82;20532;-69
2021/03/25 03:43:55;;;;;;;;;;;;;;;-5.72;100.00;99573.09;1732842;82;22326;-70
2021/03/25 03:46:25;;;;;;;;;;;;;;;-5.72;100.00;99569.98;1732220;82;20163;-69
2021/03/25 03:49:10;;;;;;;;;;;;;;;-5.66;100.00;99571.17;1732295;83;20167;-69
2021/03/25 03:51:55;;;;;;;;;;;;;;;-5.77;100.00;99572.22;1732096;82;20230;-70
2021/03/25 03:54:24;;;;;;;;;;;;;;;-5.86;100.00;99577.84;1732267;82;20175;-70
2021/03/25 03:57:13;;;;;;;;;;;;;;;-5.87;100.00;99574.08;1732409;83;21359;-70
2021/03/25 03:59:50;;;;;;;;;;;;;;;-5.96;100.00;99572.38;1732251;83;20131;-70
2021/03/25 04:02:49;;;;;;;;;;;;;;;-6.07;100.00;99574.23;1732305;82;20194;-70
2021/03/25 04:05:39;;;;;;;;;;;;;;;-6.11;100.00;99569.44;1731972;83;20127;-70
2021/03/25 04:08:20;;;;;;;;;;;;;;;-6.05;100.00;99573.60;1731684;83;20178;-70
2021/03/25 04:11:10;;;;;;;;;;;;;;;-6.02;100.00;99571.18;1854827;77;20609;-69
2021/03/25 04:13:43;;;;;;;;;;;;;;;-5.97;100.00;99578.09;1822563;78;20173;-70
2021/03/25 04:16:12;;;;;;;;;;;;;;;-5.86;100.00;99581.76;1822421;78;22469;-70
2021/03/25 04:18:57;;;;;;;;;;;;;;;-5.56;100.00;99581.09;1822104;78;20296;-70
2021/03/25 04:21:39;;;;;;;;;;;;;;;-5.36;100.00;99584.38;1795345;78;20216;-70
2021/03/25 04:24:12;;;;;;;;;;;;;;;-5.28;100.00;99580.52;1822627;78;20136;-70
2021/03/25 04:26:50;;;;;;;;;;;;;;;-5.17;100.00;99585.98;1822647;78;20124;-70
2021/03/25 04:29:30;;;;;;;;;;;;;;;-4.90;100.00;99594.69;1821400;78;21854;-71
2021/03/25 04:31:58;;;;;;;;;;;;;;;-4.64;100.00;99598.14;1822481;78;20133;-71
2021/03/25 04:34:26;;;;;;;;;;;;;;;-4.51;100.00;99604.27;1822687;78;20116;-71
2021/03/25 04:36:54;;;;;;;;;;;;;;;-4.36;100.00;99601.42;1822555;78;20132;-71
2021/03/25 04:39:22;;;;;;;;;;;;;;;-4.18;100.00;99602.64;1822670;78;20487;-71
2021/03/25 04:41:50;;;;;;;;;;;;;;;-4.01;100.00;99607.96;1822657;78;22133;-71
2021/03/25 04:44:42;;;;;;;;;;;;;;;-3.87;100.00;99606.05;1822547;78;20124;-71
2021/03/25 04:47:16;;;;;;;;;;;;;;;-3.69;100.00;99608.55;1822564;78;20129;-71
2021/03/25 04:49:56;;;;;;;;;;;;;;;-3.52;100.00;99611.53;1822482;78;20160;-71
2021/03/25 04:52:28;;;;;;;;;;;;;;;-3.31;100.00;99610.23;1822475;78;20148;-71
2021/03/25 04:55:19;;;;;;;;;;;;;;;-3.13;100.00;99610.92;1822597;78;20731;-71
2021/03/25 04:58:00;;;;;;;;;;;;;;;-2.94;100.00;99613.72;1822380;78;20200;-71
2021/03/25 05:00:38;;;;;;;;;;;;;;;-2.75;100.00;99611.72;1822653;78;20479;-71
2021/03/25 05:03:08;;;;;;;;;;;;;;;-2.59;100.00;99619.09;1822085;78;20113;-71
2021/03/25 05:05:37;;;;;;;;;;;;;;;-2.41;100.00;99615.44;1822743;78;20506;-71
2021/03/25 05:08:09;;;;;;;;;;;;;;;-2.37;100.00;99617.56;1822565;78;21365;-71
2021/03/25 05:10:46;;;;;;;;;;;;;;;-2.22;100.00;99614.23;1749409;82;20749;-71
2021/03/25 05:13:32;;;;;;;;;;;;;;;-2.06;100.00;99614.66;1775730;80;20139;-72
2021/03/25 05:16:22;;;;;;;;;;;;;;;-1.86;100.00;99612.43;1779151;80;20132;-70
2021/03/25 05:19:07;;;;;;;;;;;;;;;-1.64;99.76;99610.36;1779044;80;20135;-70
2021/03/25 05:21:57;;;;;;;;;;;;;;;-1.53;97.75;99619.16;1778811;80;20131;-70
2021/03/25 05:24:34;;;;;;;;;;;;;;;-1.41;96.24;99618.78;1778527;80;20242;-69
2021/03/25 05:27:21;;;;;;;;;;;;;;;-1.51;94.50;99619.00;1783131;80;20549;-70
2021/03/25 05:29:50;;;;;;;;;;;;;;;-1.49;94.78;99621.45;1751532;82;20372;-69
2021/03/25 05:32:20;;;;;;;;;;;;;;;-1.37;97.83;99625.31;1751802;81;20254;-70
2021/03/25 05:34:48;;;;;;;;;;;;;;;-1.22;95.59;99632.00;1751854;82;21211;-70
2021/03/25 05:37:16;;;;;;;;;;;;;;;-1.16;92.17;99639.18;1751374;82;20196;-70
2021/03/25 05:39:48;;;;;;;;;;;;;;;-0.95;93.41;99641.98;1751807;82;20491;-70
2021/03/25 05:42:49;;;;;;;;;;;;;;;-0.85;89.75;99644.89;1751737;81;20229;-70
2021/03/25 05:45:45;;;;;;;;;;;;;;;-0.75;90.52;99644.95;1751875;82;20118;-70
2021/03/25 05:48:38;;;;;;;;;;;;;;;-0.74;88.83;99639.17;1751170;81;21220;-70
2021/03/25 05:51:10;;;;;;;;;;;;;;;-0.67;89.58;99640.91;1751478;82;20197;-70
2021/03/25 05:53:44;;;;;;;;;;;;;;;-0.55;89.30;99640.49;1751756;82;20213;-70
2021/03/25 05:56:46;;;;;;;;;;;;;;;-0.38;89.57;99638.02;1751742;82;20212;-71
2021/03/25 05:59:17;;;;;;;;;;;;;;;-0.22;84.58;99645.77;1721491;83;20558;-70
2021/03/25 06:01:51;;;;;;;;;;;;;;;-0.17;83.78;99646.55;1721487;83;22371;-70
2021/03/25 06:04:37;;;;;;;;;;;;;;;-0.11;84.76;99648.95;1721345;83;20239;-69
2021/03/25 06:07:15;;;;;;;;;;;;;;;0.12;83.60;99655.43;1853608;77;20173;-69
2021/03/25 06:10:06;;;;;;;;;;;;;;;0.16;82.46;99648.28;1752229;82;20190;-69
2021/03/25 06:12:52;;;;;;;;;;;;;;;0.35;82.96;99656.66;1781869;80;20226;-69
2021/03/25 06:15:49;;;;;;;;;;;;;;;0.51;81.16;99657.73;1781452;79;20123;-69
2021/03/25 06:18:42;;;;;;;;;;;;;;;0.64;80.50;99659.73;1782732;80;20254;-69
2021/03/25 06:21:21;;;;;;;;;;;;;;;0.69;79.33;99660.50;1782815;80;20135;-66
2021/03/25 06:24:08;;;;;;;;;;;;;;;0.87;79.64;99660.06;1782080;80;20191;-69
2021/03/25 06:26:42;;;;;;;;;;;;;;;1.04;77.03;99663.59;1782791;80;21203;-69
2021/03/25 06:29:14;;;;;;;;;;;;;;;1.05;73.56;99658.63;1782230;80;20964;-69
2021/03/25 06:31:57;;;;;;;;;;;;;;;1.20;72.63;99659.04;1782238;80;20532;-69
2021/03/25 06:34:39;;;;;;;;;;;;;;;1.36;70.92;99665.39;1782382;80;20227;-70
2021/03/25 06:37:37;;;;;;;;;;;;;;;1.19;69.35;99658.23;1782711;80;20533;-70
2021/03/25 06:40:34;;;;;;;;;;;;;;;1.49;72.11;99659.38;1781942;80;21230;-70
2021/03/25 06:43:14;;;;;;;;;;;;;;;1.74;69.62;99665.08;1782843;80;20218;-70
2021/03/25 06:46:00;;;;;;;;;;;;;;;1.96;68.57;99662.34;1783098;80;20540;-69
2021/03/25 06:48:32;;;;;;;;;;;;;;;2.21;64.76;99668.00;1783107;80;20143;-70
2021/03/25 06:51:00;;;;;;;;;;;;;;;2.21;62.68;99663.51;1782432;80;20254;-70
2021/03/25 06:53:31;;;;;;;;;;;;;;;2.14;61.93;99663.47;1727531;80;21944;-69
2021/03/25 06:56:07;;;;;;;;;;;;;;;2.36;64.11;99667.34;1780651;80;20119;-70
2021/03/25 06:58:38;;;;;;;;;;;;;;;2.55;62.14;99668.45;1781617;80;20227;-70
2021/03/25 07:01:18;;;;;;;;;;;;;;;2.53;60.18;99669.95;1781535;80;20615;-69
2021/03/25 07:03:45;;;;;;;;;;;;;;;2.50;57.76;99673.49;1781318;80;20223;-69
2021/03/25 07:06:14;;;;;;;;;;;;;;;2.82;57.29;99670.66;1784247;80;21318;-69
2021/03/25 07:08:42;;;;;;;;;;;;;;;2.87;57.20;99679.34;1787224;80;20222;-68
2021/03/25 07:11:17;;;;;;;;;;;;;;;2.81;55.09;99676.16;1759536;80;20168;-69
2021/03/25 07:13:49;;;;;;;;;;;;;;;2.75;55.20;99673.80;1787065;80;20253;-69
2021/03/25 07:16:17;;;;;;;;;;;;;;;2.69;54.22;99675.39;1787103;80;20281;-69
2021/03/25 07:19:06;;;;;;;;;;;;;;;2.72;54.01;99674.18;1786752;80;21408;-68
2021/03/25 07:21:40;;;;;;;;;;;;;;;2.90;54.86;99677.09;1785985;80;20143;-68
2021/03/25 07:24:25;;;;;;;;;;;;;;;3.18;53.39;99684.08;1786278;80;20194;-69
2021/03/25 07:27:00;;;;;;;;;;;;;;;3.22;52.51;99686.13;1786743;80;20226;-68
2021/03/25 07:29:33;;;;;;;;;;;;;;;3.28;52.59;99685.00;1786105;80;20498;-70
2021/03/25 07:32:09;;;;;;;;;;;;;;;3.29;52.89;99686.14;1786444;80;21369;-68
2021/03/25 07:34:40;;;;;;;;;;;;;;;3.48;52.17;99679.70;1786115;80;20136;-69
2021/03/25 07:37:12;;;;;;;;;;;;;;;3.53;49.57;99677.25;1786021;80;20274;-69
2021/03/25 07:39:49;;;;;;;;;;;;;;;3.64;50.52;99688.07;1785549;80;20309;-69
2021/03/25 07:42:28;;;;;;;;;;;;;;;3.80;50.10;99686.04;1785610;80;20270;-68
2021/03/25 07:45:16;;;;;;;;;;;;;;;4.07;49.13;99682.30;1785523;80;22268;-68
2021/03/25 07:47:44;;;;;;;;;;;;;;;4.39;49.18;99687.73;1786289;80;20199;-68
2021/03/25 07:50:28;;;;;;;;;;;;;;;4.21;46.68;99687.05;1786663;80;20222;-68
2021/03/25 07:52:56;;;;;;;;;;;;;;;4.05;47.25;99684.34;1780757;80;20606;-70
2021/03/25 07:55:40;;;;;;;;;;;;;;;4.29;46.11;99684.19;1776679;80;20276;-70
2021/03/25 07:58:33;;;;;;;;;;;;;;;4.58;44.87;99685.19;1765809;80;22166;-70
2021/03/25 08:01:11;;;;;;;;;;;;;;;4.00;41.80;99684.16;1757701;80;20809;-69
2021/03/25 08:03:56;;;;;;;;;;;;;;;3.97;43.69;99696.53;1747633;80;20524;-69
2021/03/25 08:06:37;;;;;;;;;;;;;;;4.20;43.22;99682.78;1733278;82;20235;-70
2021/03/25 08:09:15;;;;;;;;;;;;;;;4.33;44.18;99683.76;1734255;81;20343;-70
2021/03/25 08:11:54;;;;;;;;;;;;;;;4.65;43.51;99684.12;1732845;82;22316;-68
2021/03/25 08:14:28;;;;;;;;;;;;;;;4.37;41.27;99681.80;1734628;82;20233;-68
2021/03/25 08:16:59;;;;;;;;;;;;;;;4.28;42.06;99681.20;1734522;81;20141;-69
2021/03/25 08:19:58;;;;;;;;;;;;;;;4.27;43.11;99679.59;1733347;81;20259;-69
2021/03/25 08:22:45;;;;;;;;;;;;;;;4.29;42.65;99675.41;1733529;82;20229;-70
2021/03/25 08:25:20;;;;;;;;;;;;;;;4.41;42.73;99672.88;1733341;82;21477;-68
2021/03/25 08:28:03;;;;;;;;;;;;;;;4.83;43.69;99672.81;1733341;82;20343;-68
2021/03/25 08:31:01;;;;;;;;;;;;;;;4.90;42.36;99669.60;1733495;82;20503;-68
2021/03/25 08:33:51;;;;;;;;;;;;;;;5.18;41.43;99667.58;1734241;82;20293;-68
2021/03/25 08:36:50;;;;;;;;;;;;;;;5.42;40.70;99671.30;1734562;82;20495;-69
2021/03/25 08:39:27;;;;;;;;;;;;;;;5.20;39.88;99661.02;1733503;82;21157;-69
2021/03/25 08:42:03;;;;;;;;;;;;;;;5.02;39.24;99665.75;1734431;82;20225;-69
2021/03/25 08:44:47;;;;;;;;;;;;;;;4.94;39.73;99676.11;1734576;82;20217;-70
2021/03/25 08:47:23;;;;;;;;;;;;;;;5.12;39.98;99675.89;1731138;82;20288;-68
2021/03/25 08:50:10;;;;;;;;;;;;;;;5.34;38.62;99673.20;1734628;82;20284;-67
2021/03/25 08:52:38;;;;;;;;;;;;;;;5.72;38.85;99680.77;1733216;82;21306;-69
2021/03/25 08:55:26;;;;;;;;;;;;;;;5.48;38.99;99668.56;1734176;82;20777;-70
2021/03/25 08:57:58;;;;;;;;;;;;;;;5.55;39.23;99667.99;1757174;81;20220;-70
2021/03/25 09:00:28;;;;;;;;;;;;;;;5.47;38.10;99670.94;1762514;81;20245;-70
2021/03/25 09:03:03;;;;;;;;;;;;;;;5.50;37.97;99663.84;1761755;81;20276;-71
2021/03/25 09:05:43;;;;;;;;;;;;;;;5.74;39.36;99664.86;1758021;81;22268;-69
2021/03/25 09:08:16;;;;;;;;;;;;;;;6.14;37.95;99673.00;1740141;81;20270;-69
2021/03/25 09:10:55;;;;;;;;;;;;;;;6.15;36.38;99673.28;1763123;81;20164;-70
2021/03/25 09:13:26;;;;;;;;;;;;;;;5.94;37.62;99674.55;1762934;81;20220;-68
2021/03/25 09:15:56;;;;;;;;;;;;;;;5.84;38.54;99668.88;1763349;81;20169;-68
2021/03/25 09:18:29;;;;;;;;;;;;;;;6.06;37.16;99673.30;1763548;81;21376;-69
2021/03/25 09:21:00;;;;;;;;;;;;;;;6.00;37.71;99663.83;1763126;81;20240;-69
2021/03/25 09:23:34;;;;;;;;;;;;;;;6.17;37.59;99673.39;1733031;82;20513;-70
2021/03/25 09:26:10;;;;;;;;;;;;;;;6.27;36.57;99667.54;1763342;81;20142;-69
2021/03/25 09:29:00;;;;;;;;;;;;;;;6.50;35.42;99668.70;1756863;81;20153;-70
2021/03/25 09:31:39;;;;;;;;;;;;;;;5.95;35.58;99661.51;1741061;82;21355;-69
2021/03/25 09:34:14;;;;;;;;;;;;;;;6.38;35.56;99654.78;1740782;82;20171;-68
2021/03/25 09:36:44;;;;;;;;;;;;;;;6.41;35.44;99656.19;1741073;82;20223;-68
2021/03/25 09:39:32;;;;;;;;;;;;;;;6.24;35.74;99654.64;1741070;82;20190;-69
2021/03/25 09:42:17;;;;;;;;;;;;;;;6.63;36.56;99649.86;1741268;82;20250;-68
2021/03/25 09:44:47;;;;;;;;;;;;;;;6.79;35.62;99647.09;1728893;82;21406;-69
2021/03/25 09:47:28;;;;;;;;;;;;;;;6.76;36.96;99640.36;1737186;82;20139;-69
2021/03/25 09:50:05;;;;;;;;;;;;;;;6.74;34.27;99641.10;1741229;82;20139;-68
2021/03/25 09:52:39;;;;;;;;;;;;;;;6.02;33.58;99644.94;1740901;82;20218;-68
2021/03/25 09:55:10;;;;;;;;;;;;;;;6.44;35.54;99641.90;1740660;82;20278;-68
2021/03/25 09:57:41;;;;;;;;;;;;;;;7.24;34.90;99643.95;1713332;82;21393;-68
2021/03/25 10:00:25;;;;;;;;;;;;;;;7.70;34.11;99642.37;1697912;84;20223;-67
2021/03/25 10:02:56;;;;;;;;;;;;;;;7.08;31.62;99638.77;1698225;84;20165;-70
2021/03/25 10:05:33;;;;;;;;;;;;;;;7.60;34.48;99637.61;1697958;84;20255;-69
2021/03/25 10:08:05;;;;;;;;;;;;;;;7.56;32.89;99631.09;1697848;84;20168;-69
2021/03/25 10:10:50;;;;;;;;;;;;;;;7.72;31.68;99628.27;1712160;82;22282;-69
2021/03/25 10:13:30;;;;;;;;;;;;;;;8.22;32.08;99637.08;1714554;82;20291;-69
2021/03/25 10:16:12;;;;;;;;;;;;;;;7.79;31.08;99638.81;1663892;85;20689;-68
2021/03/25 10:18:44;;;;;;;;;;;;;;;7.68;34.30;99635.11;1645939;85;20275;-67
2021/03/25 10:21:17;;;;;;;;;;;;;;;7.83;35.08;99633.30;1644082;86;20249;-68
2021/03/25 10:23:54;;;;;;;;;;;;;;;7.85;34.99;99633.36;1635793;87;21207;-67
2021/03/25 10:26:41;;;;;;;;;;;;;;;7.00;31.99;99629.21;1635331;87;20498;-68
2021/03/25 10:29:12;;;;;;;;;;;;;;;7.57;32.52;99623.39;1635150;87;20299;-68
2021/03/25 10:31:55;;;;;;;;;;;;;;;7.41;32.97;99622.21;1635539;87;20951;-70
2021/03/25 10:34:34;;;;;;;;;;;;;;;7.49;32.79;99621.86;1635748;87;20286;-69
2021/03/25 10:37:25;;;;;;;;;;;;;;;7.82;33.58;99626.34;1635797;87;22359;-67
2021/03/25 10:40:03;;;;;;;;;;;;;;;7.95;32.79;99632.77;1631960;88;20954;-68
2021/03/25 10:42:39;;;;;;;;;;;;;;;7.66;33.56;99625.17;1606383;89;20244;-68
2021/03/25 10:45:37;;;;;;;;;;;;;;;8.47;34.53;99620.75;1854233;77;20153;-68
2021/03/25 10:48:19;;;;;;;;;;;;;;;8.86;30.00;99622.81;1820359;78;20291;-68
2021/03/25 10:50:57;;;;;;;;;;;;;;;9.04;30.42;99620.44;1822187;78;22009;-68
2021/03/25 10:53:31;;;;;;;;;;;;;;;9.42;31.35;99615.70;1822132;78;20509;-68
2021/03/25 10:56:17;;;;;;;;;;;;;;;8.47;29.56;99619.41;1822148;78;20137;-67
2021/03/25 10:59:16;;;;;;;;;;;;;;;8.30;30.64;99623.33;1821934;78;20534;-68
2021/03/25 11:01:51;;;;;;;;;;;;;;;8.31;30.96;99612.13;1821426;78;20203;-69
2021/03/25 11:04:22;;;;;;;;;;;;;;;8.99;29.89;99612.63;1822272;78;21190;-69
2021/03/25 11:06:53;;;;;;;;;;;;;;;8.92;30.55;99624.01;1821808;78;20117;-68
2021/03/25 11:09:52;;;;;;;;;;;;;;;9.13;28.21;99617.12;1822275;78;20192;-68
2021/03/25 11:12:37;;;;;;;;;;;;;;;8.56;27.94;99617.19;1808005;78;20231;-68
2021/03/25 11:15:22;;;;;;;;;;;;;;;8.44;29.13;99609.73;1798745;78;20309;-68
2021/03/25 11:17:50;;;;;;;;;;;;;;;9.08;28.56;99601.50;1799807;78;21621;-68
2021/03/25 11:20:24;;;;;;;;;;;;;;;8.40;29.51;99597.34;1798345;78;20214;-69
2021/03/25 11:23:04;;;;;;;;;;;;;;;8.35;29.50;99598.55;1800298;78;20171;-69
2021/03/25 11:25:33;;;;;;;;;;;;;;;8.56;30.67;99601.13;1766925;78;20301;-68
2021/03/25 11:28:15;;;;;;;;;;;;;;;8.20;29.37;99591.05;1795023;78;20218;-68
2021/03/25 11:30:53;;;;;;;;;;;;;;;7.91;29.84;99596.36;1786397;80;20497;-68
2021/03/25 11:33:30;;;;;;;;;;;;;;;8.67;29.73;99588.74;1789799;80;20143;-69
2021/03/25 11:36:00;;;;;;;;;;;;;;;8.59;28.94;99584.59;1789082;80;20158;-70
2021/03/25 11:38:33;;;;;;;;;;;;;;;8.53;29.36;99585.56;1789642;80;20246;-68
2021/03/25 11:41:09;;;;;;;;;;;;;;;9.22;28.69;99591.56;1789621;80;20203;-68
2021/03/25 11:43:50;;;;;;;;;;;;;;;9.04;28.60;99575.75;1789381;79;21205;-69
2021/03/25 11:46:36;;;;;;;;;;;;;;;9.35;28.30;99577.02;1775619;79;20174;-69
2021/03/25 11:49:10;;;;;;;;;;;;;;;9.48;27.01;99574.56;1789516;80;20131;-68
2021/03/25 11:51:47;;;;;;;;;;;;;;;9.23;28.96;99573.63;1789742;80;20214;-70
2021/03/25 11:54:21;;;;;;;;;;;;;;;9.77;27.23;99582.44;1789403;80;20187;-69
2021/03/25 11:56:51;;;;;;;;;;;;;;;9.98;27.22;99576.83;1789014;80;21384;-69
2021/03/25 11:59:23;;;;;;;;;;;;;;;9.77;28.84;99574.39;1789032;80;20127;-69
2021/03/25 12:02:09;;;;;;;;;;;;;;;9.83;28.47;99568.86;1788835;80;20203;-68
2021/03/25 12:04:38;;;;;;;;;;;;;;;9.60;28.67;99569.91;1781207;79;20139;-69
2021/03/25 12:07:16;;;;;;;;;;;;;;;9.72;27.66;99563.61;1788860;80;20217;-68
2021/03/25 12:09:57;;;;;;;;;;;;;;;9.65;28.40;99560.59;1789369;80;21496;-68
2021/03/25 12:12:42;;;;;;;;;;;;;;;9.88;27.23;99561.42;1886466;76;20322;-68
2021/03/25 12:15:14;;;;;;;;;;;;;;;9.82;29.56;99553.02;1854818;77;20202;-68
2021/03/25 12:17:57;;;;;;;;;;;;;;;10.08;27.97;99538.86;1855110;77;21350;-68
2021/03/25 12:20:28;;;;;;;;;;;;;;;10.15;28.74;99552.09;1855023;77;20158;-68
2021/03/25 12:23:06;;;;;;;;;;;;;;;9.50;27.77;99557.68;1854383;77;20194;-67
2021/03/25 12:25:36;;;;;;;;;;;;;;;9.11;26.92;99552.28;1854336;77;20181;-68
2021/03/25 12:28:05;;;;;;;;;;;;;;;9.37;28.77;99556.16;1854630;77;20501;-68
2021/03/25 12:30:33;;;;;;;;;;;;;;;9.95;26.62;99556.69;1854486;77;21419;-69
2021/03/25 12:33:00;;;;;;;;;;;;;;;10.47;26.26;99558.91;1854845;77;20179;-69
2021/03/25 12:35:28;;;;;;;;;;;;;;;11.03;25.44;99557.27;1824703;77;20557;-70
2021/03/25 12:37:56;;;;;;;;;;;;;;;11.09;25.73;99557.58;1854102;77;20274;-69
2021/03/25 12:40:25;;;;;;;;;;;;;;;11.26;27.04;99549.38;1854894;77;20201;-69
2021/03/25 12:42:53;;;;;;;;;;;;;;;11.23;24.74;99553.92;1854270;77;20575;-70
2021/03/25 12:45:30;;;;;;;;;;;;;;;10.42;25.40;99544.09;1853708;77;20281;-70
2021/03/25 12:47:59;;;;;;;;;;;;;;;10.71;25.28;99541.97;1853945;77;20508;-69
2021/03/25 12:50:28;;;;;;;;;;;;;;;10.07;26.76;99535.91;1853717;77;20230;-69
2021/03/25 12:52:56;;;;;;;;;;;;;;;10.30;26.49;99542.09;1853551;77;20245;-68
2021/03/25 12:55:24;;;;;;;;;;;;;;;9.87;25.42;99537.00;1853650;77;21349;-68
2021/03/25 12:57:54;;;;;;;;;;;;;;;10.25;26.16;99532.08;1854134;77;20169;-68
2021/03/25 13:00:25;;;;;;;;;;;;;;;10.28;26.87;99533.48;1854953;77;20217;-69
2021/03/25 13:02:54;;;;;;;;;;;;;;;9.96;26.16;99527.46;1854948;77;20214;-68
2021/03/25 13:05:24;;;;;;;;;;;;;;;10.18;25.60;99528.78;1855034;77;20501;-69
2021/03/25 13:07:54;;;;;;;;;;;;;;;10.40;25.99;99529.31;1850626;77;22078;-69
2021/03/25 13:10:22;;;;;;;;;;;;;;;10.39;25.73;99528.52;1824621;77;20142;-69
2021/03/25 13:12:49;;;;;;;;;;;;;;;10.31;25.53;99522.23;1855485;77;20297;-68
2021/03/25 13:15:20;;;;;;;;;;;;;;;10.68;26.49;99530.41;1855236;77;20252;-66
2021/03/25 13:17:48;;;;;;;;;;;;;;;10.20;24.70;99524.52;1855225;77;20225;-68
2021/03/25 13:20:20;;;;;;;;;;;;;;;10.18;23.95;99522.61;1851129;77;21283;-68
2021/03/25 13:22:48;;;;;;;;;;;;;;;10.44;24.14;99514.34;1854415;77;20683;-69
2021/03/25 13:25:23;;;;;;;;;;;;;;;10.25;24.68;99516.52;1854679;77;20225;-69
2021/03/25 13:27:51;;;;;;;;;;;;;;;9.93;26.08;99508.39;1854902;77;20505;-69
2021/03/25 13:30:22;;;;;;;;;;;;;;;10.28;26.78;99509.34;1854654;77;20297;-70
2021/03/25 13:32:49;;;;;;;;;;;;;;;10.33;26.32;99506.70;1854833;77;21367;-68
2021/03/25 13:35:19;;;;;;;;;;;;;;;10.69;27.10;99517.78;1854266;77;20265;-70
2021/03/25 13:37:47;;;;;;;;;;;;;;;10.78;24.48;99506.86;1854093;77;20348;-69